Time;durP1;ratioP1;P1;durP2;ratioP2;P2;SDS_P1;SDS_P2;PMS_P1;PMS_P2;Temp;Humidity;BMP_temperature;BMP_pressure;BME280_temperature;BME280_humidity;BME280_pressure;Samples;Min_cycle;Max_cycle;Signal;HPM_P1;HPM_P2
2022/01/03 00:01:09;;;;;;;3.50;1.73;;;18.00;63.80;18.80;100473.00;;;;5046829;28;20511;-40
2022/01/03 00:03:35;;;;;;;4.57;1.80;;;18.00;63.70;18.80;100480.00;;;;5047650;28;20175;-40
2022/01/03 00:06:01;;;;;;;3.43;1.70;;;18.00;63.50;18.60;100470.00;;;;5047285;28;20189;-40
2022/01/03 00:08:28;;;;;;;2.90;1.80;;;18.10;63.80;18.80;100469.00;;;;5045922;28;20220;-39
2022/01/03 00:10:53;;;;;;;2.73;1.60;;;18.00;63.70;18.80;100387.00;;;;5046212;28;20559;-40
2022/01/03 00:13:20;;;;;;;2.77;1.70;;;18.00;63.70;18.80;100488.00;;;;5045492;28;20241;-40
2022/01/03 00:15:45;;;;;;;3.13;1.73;;;17.90;63.70;18.80;100477.00;;;;5047801;28;20224;-40
2022/01/03 00:18:12;;;;;;;4.47;1.80;;;17.90;63.70;18.80;100479.00;;;;5046165;28;20175;-40
2022/01/03 00:20:39;;;;;;;2.53;1.80;;;17.90;63.70;18.80;100485.00;;;;5046959;28;20190;-40
2022/01/03 00:23:07;;;;;;;3.47;1.80;;;17.90;63.70;18.80;100476.00;;;;5047375;28;20186;-40
2022/01/03 00:25:40;;;;;;;2.53;1.63;;;17.90;63.70;18.80;100487.00;;;;5047576;28;20192;-39
2022/01/03 00:28:22;;;;;;;2.23;1.80;;;17.80;63.60;18.80;100482.00;;;;5044615;28;20159;-40
2022/01/03 00:30:57;;;;;;;1.70;1.60;;;17.80;63.70;18.80;100478.00;;;;5047357;28;20162;-40
2022/01/03 00:33:24;;;;;;;2.10;1.67;;;17.80;63.60;18.70;100482.00;;;;5046170;28;20159;-40
2022/01/03 00:36:01;;;;;;;2.37;1.60;;;17.80;63.60;18.70;100472.00;;;;5046106;28;20184;-40
2022/01/03 00:38:32;;;;;;;2.63;1.70;;;17.80;63.70;18.70;100483.00;;;;5046729;28;20176;-40
2022/01/03 00:40:59;;;;;;;2.40;1.70;;;17.80;63.70;18.70;100491.00;;;;5046776;28;20283;-40
2022/01/03 00:43:25;;;;;;;1.83;1.40;;;17.70;63.50;18.70;100484.00;;;;5047259;28;20173;-40
2022/01/03 00:45:55;;;;;;;1.70;1.60;;;17.70;63.40;18.70;100490.00;;;;5046569;28;20643;-40
2022/01/03 00:48:21;;;;;;;1.90;1.70;;;17.70;63.50;18.70;100481.00;;;;5046984;28;20165;-40
2022/01/03 00:50:47;;;;;;;2.67;1.87;;;17.70;63.40;18.70;100477.00;;;;5046852;28;20205;-41
2022/01/03 00:53:13;;;;;;;1.87;1.50;;;17.70;63.50;18.70;100482.00;;;;5045754;28;20245;-40
2022/01/03 00:55:55;;;;;;;2.60;1.80;;;17.70;63.50;18.70;100414.00;;;;5046651;28;20171;-39
2022/01/03 00:58:21;;;;;;;2.00;1.60;;;17.60;63.50;18.70;100502.00;;;;5045338;28;20643;-40
2022/01/03 01:00:46;;;;;;;2.47;1.60;;;17.60;63.50;18.60;100508.00;;;;5045314;28;20198;-39
2022/01/03 01:03:18;;;;;;;2.87;1.77;;;17.60;63.50;18.60;100428.00;;;;5045719;28;20167;-40
2022/01/03 01:05:53;;;;;;;2.10;1.60;;;17.60;63.50;18.70;100492.00;;;;5045528;28;20164;-39
2022/01/03 01:08:20;;;;;;;2.10;1.70;;;17.60;63.60;18.60;100495.00;;;;5046495;28;20163;-40
2022/01/03 01:10:46;;;;;;;2.83;1.77;;;17.60;63.70;18.60;100501.00;;;;5046120;28;20235;-40
2022/01/03 01:13:13;;;;;;;2.23;1.70;;;17.60;63.60;18.60;100504.00;;;;5045194;28;20185;-41
2022/01/03 01:15:40;;;;;;;2.40;1.80;;;17.60;63.60;18.60;100502.00;;;;5046631;28;20242;-40
2022/01/03 01:18:06;;;;;;;3.10;1.90;;;17.60;63.60;18.60;100503.00;;;;5046448;28;20219;-40
2022/01/03 01:20:33;;;;;;;4.00;2.10;;;17.60;63.60;18.60;100502.00;;;;5046559;28;20210;-40
2022/01/03 01:22:59;;;;;;;1.63;1.53;;;17.60;63.60;18.60;100512.00;;;;5045829;28;20711;-40
2022/01/03 01:27:46;;;;;;;2.80;2.00;;;17.50;63.40;18.60;100517.00;;;;5046291;28;20173;-40
2022/01/03 01:28:13;;;;;;;2.70;1.80;;;17.50;63.40;18.60;100516.00;;;;5045951;28;20225;-39
2022/01/03 01:30:39;;;;;;;2.10;1.80;;;17.50;63.50;18.60;100519.00;;;;5045967;28;20744;-39
2022/01/03 01:33:16;;;;;;;2.10;1.70;;;17.50;63.50;18.60;100526.00;;;;5046323;28;20174;-39
2022/01/03 01:35:57;;;;;;;1.93;1.70;;;17.50;63.60;18.50;100516.00;;;;5045932;28;20163;-41
2022/01/03 01:38:29;;;;;;;2.50;1.73;;;17.50;63.90;18.50;100529.00;;;;5045938;28;20192;-39
2022/01/03 01:40:57;;;;;;;2.37;1.70;;;17.50;63.60;18.50;100520.00;;;;5045824;28;20191;-41
2022/01/03 01:43:35;;;;;;;2.93;1.87;;;17.50;63.70;18.50;100528.00;;;;5046110;28;20743;-39
2022/01/03 01:46:03;;;;;;;2.27;1.70;;;17.50;63.50;18.50;100525.00;;;;5045934;28;20593;-40
2022/01/03 01:48:29;;;;;;;3.20;1.57;;;17.50;63.60;18.50;100540.00;;;;5045787;28;20254;-39
2022/01/03 01:50:55;;;;;;;4.33;2.03;;;17.50;63.60;18.50;100521.00;;;;5044838;28;20181;-39
2022/01/03 01:53:25;;;;;;;3.63;2.00;;;17.50;63.60;18.50;100534.00;;;;5044733;28;20175;-40
2022/01/03 01:55:52;;;;;;;2.20;1.67;;;17.50;63.80;18.50;100534.00;;;;5045664;28;20179;-39
2022/01/03 01:58:36;;;;;;;2.07;1.70;;;17.40;63.90;18.50;100532.00;;;;5045270;28;20669;-39
2022/01/03 02:01:06;;;;;;;2.63;1.67;;;17.40;63.90;18.40;100516.00;;;;5045987;28;20180;-40
2022/01/03 02:03:46;;;;;;;2.93;1.83;;;17.40;63.80;18.50;100531.00;;;;5045886;28;20190;-40
2022/01/03 02:06:21;;;;;;;3.00;1.83;;;17.40;63.70;18.40;100530.00;;;;5045900;28;20207;-40
2022/01/03 02:09:29;;;;;;;1.73;1.60;;;17.40;63.90;18.40;100521.00;;;;5045399;28;20174;-40
2022/01/03 02:11:56;;;;;;;2.10;1.80;;;17.40;63.90;18.40;100531.00;;;;5044404;28;20185;-40
2022/01/03 02:14:24;;;;;;;1.80;1.70;;;17.30;63.90;18.40;100522.00;;;;5045544;28;20178;-40
2022/01/03 02:16:50;;;;;;;2.80;1.80;;;17.30;63.80;18.40;100537.00;;;;5045590;28;20261;-40
2022/01/03 02:19:16;;;;;;;2.80;1.80;;;17.30;63.80;18.40;100540.00;;;;5045299;28;20279;-39
2022/01/03 02:21:42;;;;;;;2.03;1.70;;;17.30;63.90;18.40;100522.00;;;;5045310;28;20287;-39
2022/01/03 02:24:08;;;;;;;2.33;1.70;;;17.30;63.80;18.40;100534.00;;;;5044297;28;20163;-40
2022/01/03 02:26:34;;;;;;;2.70;1.80;;;17.30;63.80;18.30;100530.00;;;;5045461;28;20257;-45
2022/01/03 02:29:00;;;;;;;2.70;2.00;;;17.30;63.80;18.40;100535.00;;;;5045208;28;20193;-40
2022/01/03 02:31:26;;;;;;;2.90;1.90;;;17.30;63.90;18.30;100526.00;;;;5045385;28;20212;-41
2022/01/03 02:33:51;;;;;;;2.60;1.93;;;17.30;63.80;18.30;100538.00;;;;5045544;28;20259;-40
2022/01/03 02:36:17;;;;;;;2.50;1.90;;;17.30;63.90;18.30;100527.00;;;;5044976;28;20249;-40
2022/01/03 02:38:43;;;;;;;3.73;1.97;;;17.20;63.70;18.30;100536.00;;;;5045609;28;20202;-39
2022/01/03 02:41:09;;;;;;;3.20;1.90;;;17.20;63.70;18.30;100522.00;;;;5046686;28;20162;-40
2022/01/03 02:43:35;;;;;;;2.20;1.67;;;17.30;63.80;18.30;100527.00;;;;5046397;28;20828;-40
2022/01/03 02:46:01;;;;;;;2.67;1.70;;;17.30;63.80;18.30;100536.00;;;;5050546;28;20184;-41
2022/01/03 02:48:27;;;;;;;2.37;1.67;;;17.30;63.90;18.30;100525.00;;;;5052665;28;20174;-40
2022/01/03 02:50:52;;;;;;;2.43;1.80;;;17.30;63.80;18.30;100526.00;;;;5045492;28;20699;-40
2022/01/03 02:53:19;;;;;;;2.10;1.80;;;17.20;63.70;18.30;100521.00;;;;5049135;28;20182;-40
2022/01/03 02:55:44;;;;;;;2.20;1.70;;;17.20;63.80;18.30;100527.00;;;;5048989;28;20181;-40
2022/01/03 02:58:10;;;;;;;2.80;2.00;;;17.20;63.70;18.20;100514.00;;;;5048727;28;20178;-40
2022/01/03 03:00:45;;;;;;;3.00;1.87;;;17.20;63.80;18.20;100528.00;;;;5048438;28;20206;-40
2022/01/03 03:03:14;;;;;;;1.63;1.53;;;17.20;63.70;18.20;100516.00;;;;5049158;28;20173;-41
2022/01/03 03:05:41;;;;;;;3.10;1.97;;;17.20;63.80;18.20;100521.00;;;;5048706;28;20181;-40
2022/01/03 03:08:07;;;;;;;3.40;1.87;;;17.20;63.80;18.20;100522.00;;;;5048843;28;20231;-40
2022/01/03 03:10:32;;;;;;;2.00;1.70;;;17.20;63.70;18.20;100522.00;;;;5048367;28;20575;-41
2022/01/03 03:12:58;;;;;;;2.90;1.80;;;17.20;63.70;18.20;100529.00;;;;5048402;28;20172;-40
2022/01/03 03:15:24;;;;;;;2.90;1.93;;;17.20;63.70;18.20;100531.00;;;;5048932;28;20757;-40
2022/01/03 03:17:50;;;;;;;1.87;1.60;;;17.10;63.60;18.20;100522.00;;;;5048621;28;20823;-41
2022/01/03 03:20:21;;;;;;;3.10;1.90;;;17.20;63.70;18.20;100517.00;;;;5048558;28;20281;-40
2022/01/03 03:22:49;;;;;;;2.50;1.83;;;17.20;63.70;18.20;100519.00;;;;5048401;28;20219;-40
2022/01/03 03:25:23;;;;;;;2.60;1.73;;;17.10;63.60;18.20;100530.00;;;;5048706;28;20170;-41
2022/01/03 03:27:52;;;;;;;2.77;1.90;;;17.10;63.60;18.20;100535.00;;;;5048307;28;20204;-39
2022/01/03 03:30:22;;;;;;;3.17;1.93;;;17.10;63.60;18.20;100526.00;;;;5047391;28;20179;-39
2022/01/03 03:32:50;;;;;;;2.50;1.80;;;17.20;63.70;18.20;100527.00;;;;5051819;28;20155;-39
2022/01/03 03:35:15;;;;;;;2.97;1.80;;;17.10;63.60;18.20;100533.00;;;;5051117;28;20176;-40
2022/01/03 03:37:41;;;;;;;2.23;1.63;;;17.00;64.00;18.20;100536.00;;;;5050636;28;20182;-45
2022/01/03 03:40:07;;;;;;;2.30;1.70;;;17.00;64.00;18.10;100538.00;;;;5049726;28;20194;-40
2022/01/03 03:42:33;;;;;;;2.33;2.00;;;17.00;63.90;18.10;100543.00;;;;5050731;28;20183;-40
2022/01/03 03:44:59;;;;;;;2.43;1.80;;;17.00;63.90;18.10;100526.00;;;;5050606;28;20176;-39
2022/01/03 03:47:24;;;;;;;3.03;1.90;;;17.00;63.90;18.10;100531.00;;;;5049071;28;20187;-40
2022/01/03 03:49:50;;;;;;;2.67;1.60;;;17.00;63.80;18.10;100540.00;;;;5047792;28;20202;-39
2022/01/03 03:52:16;;;;;;;2.03;1.67;;;17.00;63.70;18.10;100549.00;;;;5055099;28;20173;-41
2022/01/03 03:54:41;;;;;;;2.17;1.60;;;17.00;63.70;18.10;100454.00;;;;5057417;28;20170;-40
2022/01/03 03:57:08;;;;;;;2.57;1.67;;;17.00;63.80;18.10;100529.00;;;;5049593;28;20190;-40
2022/01/03 03:59:34;;;;;;;2.67;1.90;;;17.00;63.70;18.00;100488.00;;;;5047324;28;20241;-40
2022/01/03 04:01:59;;;;;;;2.10;1.50;;;17.00;63.70;18.10;100543.00;;;;5047538;28;20191;-40
2022/01/03 04:04:25;;;;;;;2.77;1.80;;;17.00;63.80;18.10;100540.00;;;;5047726;28;20165;-39
2022/01/03 04:06:51;;;;;;;3.17;1.80;;;17.00;63.90;18.00;100545.00;;;;5047591;28;20180;-40
2022/01/03 04:09:17;;;;;;;3.27;1.70;;;17.00;63.90;18.00;100537.00;;;;5047509;28;20257;-40
2022/01/03 04:11:42;;;;;;;1.80;1.60;;;17.00;63.90;18.00;100531.00;;;;5047750;28;20379;-40
2022/01/03 04:14:08;;;;;;;2.53;1.80;;;17.00;63.90;18.00;100530.00;;;;5047881;28;20186;-39
2022/01/03 04:16:34;;;;;;;4.53;1.90;;;16.90;63.80;18.00;100534.00;;;;5047547;28;20248;-40
2022/01/03 04:19:00;;;;;;;2.43;1.77;;;17.00;64.10;18.00;100540.00;;;;5048752;28;20705;-40
2022/01/03 04:21:26;;;;;;;4.40;1.87;;;17.00;64.50;18.00;100539.00;;;;5053422;28;20265;-40
2022/01/03 04:23:52;;;;;;;5.10;1.83;;;17.00;64.70;18.00;100540.00;;;;5051308;28;20174;-40
2022/01/03 04:26:18;;;;;;;7.80;2.20;;;17.00;63.70;18.00;100533.00;;;;5046396;28;20190;-39
2022/01/03 04:28:44;;;;;;;4.03;1.93;;;16.90;63.90;18.00;100530.00;;;;5046668;28;20163;-40
2022/01/03 04:31:10;;;;;;;3.73;1.83;;;16.90;64.00;18.00;100533.00;;;;5047834;28;20181;-40
2022/01/03 04:33:36;;;;;;;3.97;1.80;;;16.90;63.90;18.00;100534.00;;;;5044469;28;20167;-40
2022/01/03 04:36:02;;;;;;;3.80;1.90;;;16.80;64.30;18.00;100531.00;;;;5028081;28;20218;-40
2022/01/03 04:38:28;;;;;;;2.73;1.87;;;16.80;64.40;18.00;100539.00;;;;5027046;28;20163;-39
2022/01/03 04:40:53;;;;;;;4.93;1.80;;;16.80;64.10;18.00;100539.00;;;;5026738;28;20206;-39
2022/01/03 04:43:19;;;;;;;5.53;1.90;;;16.80;64.00;18.00;100528.00;;;;5027623;28;20174;-39
2022/01/03 04:45:45;;;;;;;4.43;2.43;;;16.90;64.00;17.90;100532.00;;;;5026653;28;20167;-39
2022/01/03 04:48:11;;;;;;;4.87;2.30;;;16.80;64.00;17.90;100533.00;;;;5026741;28;20217;-39
2022/01/03 04:50:36;;;;;;;5.13;1.90;;;16.80;64.00;17.90;100531.00;;;;5026524;28;20467;-40
2022/01/03 04:53:02;;;;;;;4.70;2.03;;;16.80;63.70;17.90;100539.00;;;;5026199;28;20206;-39
2022/01/03 04:55:28;;;;;;;4.20;1.90;;;16.80;63.70;17.90;100539.00;;;;5026790;28;20159;-40
2022/01/03 04:57:53;;;;;;;3.63;2.20;;;16.80;63.60;17.90;100537.00;;;;5026152;28;20205;-40
2022/01/03 05:00:19;;;;;;;4.63;2.10;;;16.80;63.50;17.90;100530.00;;;;5025992;28;20574;-40
2022/01/03 05:02:45;;;;;;;3.37;1.90;;;16.80;63.50;17.90;100538.00;;;;5026346;28;20301;-39
2022/01/03 05:05:11;;;;;;;3.10;2.07;;;16.80;63.50;17.80;100535.00;;;;5026069;28;20198;-40
2022/01/03 05:07:37;;;;;;;3.20;2.07;;;16.80;63.50;17.80;100533.00;;;;5026017;28;20194;-40
2022/01/03 05:10:04;;;;;;;2.23;1.87;;;16.80;63.50;17.80;100532.00;;;;5026416;28;20489;-39
2022/01/03 05:12:29;;;;;;;3.43;2.03;;;16.80;63.40;17.80;100546.00;;;;5026169;28;20225;-39
2022/01/03 05:14:55;;;;;;;4.90;2.10;;;16.80;63.40;17.80;100530.00;;;;5025611;28;20183;-40
2022/01/03 05:17:21;;;;;;;3.57;2.00;;;16.70;63.20;17.80;100538.00;;;;5025671;28;20853;-39
2022/01/03 05:19:47;;;;;;;4.80;2.00;;;16.70;63.20;17.80;100532.00;;;;5026091;28;20203;-39
2022/01/03 05:22:12;;;;;;;4.60;2.23;;;16.70;63.20;17.80;100533.00;;;;5031775;28;20171;-43
2022/01/03 05:24:38;;;;;;;4.40;2.10;;;16.80;63.90;17.80;100539.00;;;;5026904;28;20221;-40
2022/01/03 05:27:05;;;;;;;2.97;2.10;;;16.70;63.50;17.80;100533.00;;;;5026592;28;20187;-39
2022/01/03 05:29:34;;;;;;;9.67;2.67;;;16.80;63.50;17.80;100534.00;;;;5029003;28;20198;-40
2022/01/03 05:32:00;;;;;;;4.83;2.30;;;16.80;63.60;17.80;100535.00;;;;5026208;28;20538;-40
2022/01/03 05:34:26;;;;;;;7.40;2.50;;;16.80;63.70;17.80;100527.00;;;;5025968;28;20172;-39
2022/01/03 05:36:52;;;;;;;4.77;2.63;;;16.70;63.80;17.80;100525.00;;;;5025963;28;20252;-40
2022/01/03 05:39:18;;;;;;;8.97;2.60;;;16.70;63.80;17.80;100528.00;;;;5025718;28;20274;-40
2022/01/03 05:41:44;;;;;;;10.40;2.70;;;16.70;63.70;17.80;100519.00;;;;5025611;28;20384;-40
2022/01/03 05:44:09;;;;;;;9.93;2.80;;;16.70;63.70;17.80;100526.00;;;;5027306;28;20160;-40
2022/01/03 05:46:35;;;;;;;14.47;3.17;;;16.70;63.70;17.70;100457.00;;;;5031780;28;20753;-40
2022/01/03 05:49:01;;;;;;;15.10;3.50;;;16.70;63.80;17.70;100520.00;;;;5029354;28;20224;-41
2022/01/03 05:51:26;;;;;;;19.77;3.80;;;16.70;63.90;17.70;100525.00;;;;5026061;28;20194;-40
2022/01/03 05:53:55;;;;;;;18.70;4.03;;;16.70;64.10;17.70;100517.00;;;;5025536;28;20171;-39
2022/01/03 05:56:21;;;;;;;14.77;4.20;;;16.70;64.10;17.70;100517.00;;;;5025634;28;20741;-40
2022/01/03 05:58:47;;;;;;;17.20;4.13;;;16.70;64.10;17.70;100508.00;;;;5025362;28;20198;-41
2022/01/03 06:01:13;;;;;;;16.97;3.37;;;16.70;64.30;17.70;100501.00;;;;5025508;28;20180;-41
2022/01/03 06:03:40;;;;;;;18.23;3.60;;;16.70;64.20;17.70;100497.00;;;;5027748;28;20624;-41
2022/01/03 06:08:35;;;;;;;18.87;3.37;;;16.70;64.40;17.70;100491.00;;;;5030804;28;20536;-40
2022/01/03 06:11:00;;;;;;;11.27;2.93;;;16.60;64.90;17.70;100482.00;;;;5031011;28;20163;-40
2022/01/03 06:13:26;;;;;;;11.43;3.23;;;16.50;64.90;17.70;100490.00;;;;5048599;28;20181;-40
2022/01/03 06:15:52;;;;;;;8.47;2.80;;;16.50;64.70;17.70;100486.00;;;;5047926;28;20177;-41
2022/01/03 06:18:18;;;;;;;12.17;3.20;;;16.60;64.80;17.70;100481.00;;;;5047404;28;20189;-40
2022/01/03 06:20:45;;;;;;;11.60;3.30;;;16.60;64.60;17.60;100460.00;;;;5047674;28;20576;-41
2022/01/03 06:23:12;;;;;;;8.53;2.80;;;16.60;64.50;17.60;100472.00;;;;5048896;28;20181;-41
2022/01/03 06:25:38;;;;;;;11.87;3.10;;;16.60;64.50;17.60;100477.00;;;;5048453;28;20171;-40
2022/01/03 06:28:07;;;;;;;10.57;3.40;;;16.60;64.30;17.60;100474.00;;;;5051499;28;20166;-40
2022/01/03 06:30:34;;;;;;;9.47;2.83;;;16.60;64.30;17.60;100471.00;;;;5052226;28;20697;-41
2022/01/03 06:32:59;;;;;;;9.90;2.80;;;16.60;64.40;17.60;100480.00;;;;5050790;28;20264;-41
2022/01/03 06:35:25;;;;;;;8.93;2.70;;;16.60;64.30;17.60;100472.00;;;;5052265;28;20324;-41
2022/01/03 06:37:51;;;;;;;7.63;3.00;;;16.60;64.30;17.60;100480.00;;;;5051857;28;20683;-41
2022/01/03 06:40:16;;;;;;;8.63;2.80;;;16.60;64.20;17.60;100456.00;;;;5052148;28;20213;-40
2022/01/03 06:42:42;;;;;;;6.27;2.53;;;16.60;64.10;17.60;100477.00;;;;5051963;28;20639;-40
2022/01/03 06:45:08;;;;;;;8.33;2.90;;;16.60;64.10;17.60;100473.00;;;;5052097;28;20166;-40
2022/01/03 06:47:34;;;;;;;6.27;2.67;;;16.60;64.10;17.60;100475.00;;;;5051860;28;20186;-42
2022/01/03 06:50:00;;;;;;;6.40;2.67;;;16.60;64.10;17.60;100473.00;;;;5051783;28;20173;-41
2022/01/03 06:52:26;;;;;;;5.60;2.80;;;16.60;64.20;17.60;100469.00;;;;5051866;28;20201;-41
2022/01/03 06:54:51;;;;;;;5.50;2.70;;;16.50;64.20;17.60;100476.00;;;;5052330;28;20521;-41
2022/01/03 06:57:17;;;;;;;7.27;2.60;;;16.50;64.20;17.60;100479.00;;;;5051290;28;20193;-41
2022/01/03 06:59:43;;;;;;;6.10;2.50;;;16.50;64.30;17.60;100477.00;;;;5051794;28;20206;-40
2022/01/03 07:02:08;;;;;;;6.23;2.43;;;16.50;64.20;17.60;100476.00;;;;5051689;28;20639;-40
2022/01/03 07:04:34;;;;;;;6.23;2.53;;;16.50;64.20;17.60;100475.00;;;;5051888;28;20194;-40
2022/01/03 07:07:00;;;;;;;6.33;2.77;;;16.50;64.10;17.60;100475.00;;;;5051761;28;20214;-40
2022/01/03 07:09:26;;;;;;;5.87;2.60;;;16.50;64.00;17.60;100476.00;;;;5053818;28;20810;-40
2022/01/03 07:11:51;;;;;;;5.27;2.37;;;16.50;64.20;17.60;100472.00;;;;5051871;28;20181;-41
2022/01/03 07:19:46;;;;;;;4.70;2.37;;;16.50;64.20;17.50;100491.00;;;;5051067;28;20209;-41
2022/01/03 07:22:12;;;;;;;4.80;2.13;;;16.50;64.00;17.50;100479.00;;;;5051199;28;20757;-40
2022/01/03 07:24:38;;;;;;;4.30;2.50;;;16.50;64.10;17.50;100485.00;;;;5050013;28;20249;-39
2022/01/03 07:27:06;;;;;;;3.50;2.10;;;16.40;64.10;17.50;100470.00;;;;5050765;28;20285;-44
2022/01/03 07:29:32;;;;;;;4.77;2.60;;;16.40;64.10;17.50;100475.00;;;;5033508;28;20777;-41
2022/01/03 07:31:58;;;;;;;4.83;2.20;;;16.50;64.20;17.50;100470.00;;;;5049998;28;20685;-41
2022/01/03 07:34:24;;;;;;;4.00;2.40;;;16.40;64.10;17.50;100470.00;;;;5050637;28;20178;-40
2022/01/03 07:36:50;;;;;;;7.33;2.30;;;16.50;64.10;17.50;100467.00;;;;5050325;28;20190;-39
2022/01/03 07:39:16;;;;;;;4.80;2.10;;;16.40;64.30;17.50;100462.00;;;;5050749;28;20213;-40
2022/01/03 07:41:41;;;;;;;4.00;2.20;;;16.40;64.20;17.50;100462.00;;;;5050825;28;20235;-40
2022/01/03 07:44:07;;;;;;;5.90;2.27;;;16.40;64.20;17.50;100458.00;;;;5051082;28;20178;-40
2022/01/03 07:46:33;;;;;;;4.43;2.20;;;16.40;64.00;17.50;100463.00;;;;5050389;28;20187;-40
2022/01/03 07:48:58;;;;;;;3.70;2.00;;;16.50;64.10;17.50;100473.00;;;;5050431;28;20170;-40
2022/01/03 07:51:24;;;;;;;3.53;2.07;;;16.40;63.90;17.50;100476.00;;;;5050892;28;20177;-40
2022/01/03 07:53:50;;;;;;;2.93;2.10;;;16.50;64.10;17.50;100476.00;;;;5051002;28;20664;-40
2022/01/03 07:56:18;;;;;;;4.37;2.20;;;16.40;64.10;17.50;100473.00;;;;5050631;28;20248;-41
2022/01/03 07:58:44;;;;;;;2.43;1.90;;;16.40;64.20;17.50;100472.00;;;;5050029;28;20603;-40
2022/01/03 08:01:11;;;;;;;3.87;2.27;;;16.30;64.10;17.50;100477.00;;;;5052282;28;20195;-40
2022/01/03 08:03:36;;;;;;;3.27;2.00;;;16.30;64.30;17.50;100471.00;;;;5052608;28;20159;-40
2022/01/03 08:06:02;;;;;;;6.13;2.03;;;16.40;64.40;17.50;100473.00;;;;5050438;28;20707;-39
2022/01/03 08:08:28;;;;;;;3.00;1.97;;;16.30;64.30;17.50;100476.00;;;;5050073;28;20166;-40
2022/01/03 08:10:54;;;;;;;4.10;2.30;;;16.30;64.30;17.40;100475.00;;;;5051058;28;20178;-40
2022/01/03 08:13:19;;;;;;;4.27;1.90;;;16.30;64.20;17.40;100483.00;;;;5051915;28;20530;-39
2022/01/03 08:15:45;;;;;;;3.83;1.93;;;16.40;64.30;17.40;100472.00;;;;5051170;28;20174;-39
2022/01/03 08:18:12;;;;;;;6.17;2.37;;;16.40;64.10;17.40;100474.00;;;;5049446;28;20182;-39
2022/01/03 08:20:38;;;;;;;4.27;1.90;;;16.30;64.00;17.40;100470.00;;;;5052567;28;20225;-40
2022/01/03 08:23:03;;;;;;;2.70;1.90;;;16.30;64.00;17.40;100479.00;;;;5055985;28;20163;-40
2022/01/03 08:25:32;;;;;;;3.33;2.20;;;16.30;64.20;17.40;100471.00;;;;5050333;28;20170;-40
2022/01/03 08:27:57;;;;;;;3.70;2.23;;;16.30;64.20;17.40;100470.00;;;;5049416;28;20198;-39
2022/01/03 08:30:23;;;;;;;3.60;2.00;;;16.40;64.20;17.40;100475.00;;;;5050288;28;20673;-39
2022/01/03 08:32:49;;;;;;;2.50;1.73;;;16.30;64.00;17.40;100476.00;;;;5050393;28;20170;-40
2022/01/03 08:35:15;;;;;;;6.87;2.07;;;16.30;64.70;17.40;100484.00;;;;5049987;28;20197;-39
2022/01/03 08:37:40;;;;;;;2.83;1.90;;;16.30;64.80;17.40;100478.00;;;;5049587;28;20186;-39
2022/01/03 08:40:06;;;;;;;4.77;1.97;;;16.30;65.00;17.40;100486.00;;;;5049552;28;20297;-40
2022/01/03 08:42:33;;;;;;;3.77;1.90;;;16.40;65.50;17.40;100486.00;;;;5049775;28;20177;-40
2022/01/03 08:45:01;;;;;;;5.13;1.90;;;16.40;65.50;17.50;100470.00;;;;5049799;28;20221;-40
2022/01/03 08:47:27;;;;;;;3.23;1.90;;;16.60;65.60;17.50;100484.00;;;;5049670;28;20223;-39
2022/01/03 08:49:52;;;;;;;5.33;1.80;;;16.80;65.40;17.60;100477.00;;;;5048880;28;20624;-40
2022/01/03 08:52:18;;;;;;;10.10;2.47;;;17.00;65.20;17.70;100484.00;;;;5049798;28;20166;-40
2022/01/03 08:54:44;;;;;;;10.90;2.43;;;17.30;65.10;17.90;100475.00;;;;5049943;28;20205;-40
2022/01/03 08:57:10;;;;;;;9.23;2.23;;;17.60;65.10;18.00;100474.00;;;;5049482;28;20651;-40
2022/01/03 08:59:35;;;;;;;9.00;2.30;;;17.90;64.50;18.20;100469.00;;;;5049009;28;20189;-40
2022/01/03 09:02:01;;;;;;;6.27;2.27;;;18.20;64.00;18.30;100461.00;;;;5049471;28;20586;-40
2022/01/03 09:04:27;;;;;;;5.37;2.30;;;18.40;63.70;18.50;100463.00;;;;5049345;28;20199;-39
2022/01/03 09:06:53;;;;;;;5.17;2.17;;;18.50;63.50;18.60;100462.00;;;;5047459;28;20193;-40
2022/01/03 09:09:19;;;;;;;6.33;2.13;;;18.70;63.20;18.70;100456.00;;;;5049195;28;20166;-40
2022/01/03 09:11:45;;;;;;;5.30;2.53;;;18.70;62.90;18.80;100453.00;;;;5047664;28;20187;-39
2022/01/03 09:14:11;;;;;;;3.80;1.97;;;18.80;63.00;18.90;100445.00;;;;5049084;28;20562;-39
2022/01/03 09:16:36;;;;;;;4.13;2.07;;;18.90;62.80;19.00;100446.00;;;;5052896;28;20191;-39
2022/01/03 09:19:02;;;;;;;4.67;2.17;;;19.00;62.90;19.10;100440.00;;;;5052099;28;20216;-39
2022/01/03 09:21:29;;;;;;;5.17;2.00;;;19.00;62.90;19.20;100453.00;;;;5048653;28;20177;-40
2022/01/03 09:24:16;;;;;;;3.23;2.10;;;19.10;62.70;19.30;100446.00;;;;5047953;28;20240;-38
2022/01/03 09:29:25;;;;;;;2.50;1.97;;;19.20;62.80;19.40;100447.00;;;;5048252;28;20166;-39
2022/01/03 09:31:51;;;;;;;4.33;2.17;;;19.10;62.90;19.50;100449.00;;;;5048303;28;20189;-40
2022/01/03 09:34:17;;;;;;;2.93;1.83;;;19.10;63.00;19.50;100451.00;;;;5047922;28;20734;-40
2022/01/03 09:36:42;;;;;;;4.07;2.00;;;19.10;63.00;19.50;100451.00;;;;5048001;28;20576;-40
2022/01/03 09:39:08;;;;;;;1.80;1.70;;;19.10;63.20;19.50;100455.00;;;;5047918;28;20200;-40
2022/01/03 09:41:34;;;;;;;2.67;2.00;;;19.00;63.20;19.60;100454.00;;;;5048394;28;20215;-40
2022/01/03 09:44:04;;;;;;;3.17;1.87;;;19.10;63.30;19.60;100457.00;;;;5048677;28;20356;-40
2022/01/03 09:46:36;;;;;;;4.10;2.00;;;19.10;63.30;19.60;100458.00;;;;5047298;28;20228;-40
2022/01/03 09:49:02;;;;;;;2.80;1.80;;;19.10;63.40;19.60;100463.00;;;;5047572;28;20166;-40
2022/01/03 09:51:29;;;;;;;3.63;2.23;;;19.10;63.50;19.60;100451.00;;;;5048276;28;20203;-40
2022/01/03 09:54:15;;;;;;;3.83;1.83;;;19.00;64.10;19.60;100450.00;;;;5048176;28;20198;-40
2022/01/03 09:56:42;;;;;;;5.43;2.20;;;19.00;63.50;19.50;100462.00;;;;5047880;28;20686;-40
2022/01/03 09:59:08;;;;;;;2.63;2.00;;;19.00;63.60;19.50;100445.00;;;;5047394;28;20618;-40
2022/01/03 10:01:34;;;;;;;3.07;1.97;;;18.90;63.50;19.50;100430.00;;;;5047620;28;20436;-39
2022/01/03 10:04:00;;;;;;;3.80;2.07;;;18.90;63.60;19.50;100432.00;;;;5048594;28;20573;-40
2022/01/03 10:06:26;;;;;;;2.90;1.80;;;18.90;63.70;19.50;100436.00;;;;5048161;28;20214;-40
2022/01/03 10:08:52;;;;;;;2.20;1.60;;;18.90;63.70;19.50;100436.00;;;;5047826;28;20538;-40
2022/01/03 10:11:21;;;;;;;4.33;2.10;;;18.90;63.70;19.50;100439.00;;;;5048294;28;20179;-40
2022/01/03 10:13:47;;;;;;;5.47;2.10;;;18.80;64.10;19.50;100437.00;;;;5046033;28;20193;-40
2022/01/03 10:16:13;;;;;;;5.20;2.10;;;18.80;64.40;19.50;100436.00;;;;5048002;28;20186;-40
2022/01/03 10:18:39;;;;;;;4.53;2.03;;;18.80;64.40;19.50;100441.00;;;;5047320;28;20181;-40
2022/01/03 10:21:06;;;;;;;3.53;2.07;;;18.80;64.40;19.50;100430.00;;;;5048029;28;20213;-40
2022/01/03 10:23:32;;;;;;;4.27;2.20;;;18.70;64.60;19.50;100444.00;;;;5047988;28;20186;-40
2022/01/03 10:26:15;;;;;;;4.23;1.80;;;18.70;64.70;19.50;100424.00;;;;5047622;28;20337;-40
2022/01/03 10:28:41;;;;;;;4.57;1.80;;;18.70;64.70;19.40;100436.00;;;;5047708;28;20170;-40
2022/01/03 10:31:21;;;;;;;7.27;2.43;;;18.70;64.90;19.40;100423.00;;;;5048169;28;20181;-40
2022/01/03 10:33:47;;;;;;;9.80;2.30;;;18.60;64.90;19.40;100415.00;;;;5047980;28;20180;-40
2022/01/03 10:36:30;;;;;;;8.40;2.40;;;18.60;64.90;19.40;100416.00;;;;5047666;28;20264;-40
2022/01/03 10:38:57;;;;;;;5.23;2.00;;;18.60;65.00;19.40;100412.00;;;;5046955;28;20193;-40
2022/01/03 10:41:24;;;;;;;6.67;2.00;;;18.60;65.10;19.40;100404.00;;;;5047580;28;20214;-39
2022/01/03 10:43:59;;;;;;;3.27;2.10;;;18.50;65.00;19.40;100386.00;;;;5048241;28;20219;-40
2022/01/03 10:46:33;;;;;;;5.13;1.90;;;18.60;65.20;19.40;100405.00;;;;5047270;28;20713;-40
2022/01/03 10:49:16;;;;;;;7.37;2.30;;;18.50;65.10;19.40;100399.00;;;;5047669;28;20147;-40
2022/01/03 10:51:42;;;;;;;5.13;2.03;;;18.50;65.00;19.30;100401.00;;;;5048165;28;20166;-40
2022/01/03 10:54:18;;;;;;;7.07;2.00;;;18.40;64.90;19.30;100383.00;;;;5047494;28;20702;-40
2022/01/03 10:56:48;;;;;;;10.43;2.57;;;18.40;65.00;19.30;100414.00;;;;5047259;28;20205;-39
2022/01/03 10:59:34;;;;;;;4.53;2.10;;;18.40;65.20;19.30;100401.00;;;;5047628;28;20202;-40